Station Historical Data
Daily Summary for January 22, 2017 Units:  Both    English   Metric
« Previous Day
Next Day »
Daily Weekly Monthly Yearly Custom
  High: Low: Average:
Temperature: 47.1 °F /  8.4 °C 36.8 °F /  2.7 °C 41.2 °F /  5.1 °C
Dew Point: 45.3 °F /  7.4 °C 35.5 °F /  1.9 °C 39.8 °F /  4.3 °C
Humidity: 97% 92% 95%
Wind Speed: 14.0mph /  22.5km/h - 3.8mph /  6.1km/h
Wind Gust: 20.0mph /  32.2km/h - -
Wind- - ENE
Pressure: 29.74 in /  1007 hPa 29.65 in /  1003.9 hPa -
Precipitation: 0.00 in /  0 mm    
Historical Graphs
 
 
Tabular Data for January 22, 2017
Time Temperature Dew Point Pressure Wind Wind Speed Wind Gust Humidity Rainfall Rate (Hourly)
00:04 46.3 °F /  7.9 °C 44.9 °F /  7.2 °C 29.68in /  1005hPa Calm     95% 0.00in /  0mm
00:09 46.3 °F /  7.9 °C 44.9 °F /  7.2 °C 29.68in /  1005hPa Calm     95% 0.00in /  0mm
00:14 46.4 °F /  8 °C 45.0 °F /  7.2 °C 29.68in /  1005hPa Calm     95% 0.00in /  0mm
00:19 46.4 °F /  8 °C 45.0 °F /  7.2 °C 29.68in /  1005hPa Calm     95% 0.00in /  0mm
00:24 46.6 °F /  8.1 °C 45.2 °F /  7.3 °C 29.68in /  1005hPa Calm     95% 0.00in /  0mm
00:29 46.7 °F /  8.2 °C 45.3 °F /  7.4 °C 29.68in /  1005hPa Calm     95% 0.00in /  0mm
00:34 46.5 °F /  8.1 °C 45.1 °F /  7.3 °C 29.68in /  1005hPa Calm     95% 0.00in /  0mm
00:39 46.2 °F /  7.9 °C 44.6 °F /  7 °C 29.68in /  1005hPa Calm     94% 0.00in /  0mm
00:44 45.9 °F /  7.7 °C 44.5 °F /  6.9 °C 29.68in /  1005hPa Calm     95% 0.00in /  0mm
00:49 45.5 °F /  7.5 °C 43.9 °F /  6.6 °C 29.68in /  1005hPa Calm     94% 0.00in /  0mm
00:54 45.6 °F /  7.6 °C 44.3 °F /  6.8 °C 29.68in /  1005hPa Calm     95% 0.00in /  0mm
00:59 45.4 °F /  7.4 °C 44.1 °F /  6.7 °C 29.67in /  1004.6hPa Calm     95% 0.00in /  0mm
01:05 45.3 °F /  7.4 °C 44.0 °F /  6.7 °C 29.67in /  1004.6hPa Calm     95% 0.00in /  0mm
01:10 44.9 °F /  7.2 °C 43.3 °F /  6.3 °C 29.67in /  1004.6hPa Calm     94% 0.00in /  0mm
01:15 44.8 °F /  7.1 °C 43.5 °F /  6.4 °C 29.67in /  1004.6hPa Calm     95% 0.00in /  0mm
01:20 44.8 °F /  7.1 °C 43.5 °F /  6.4 °C 29.67in /  1004.6hPa Calm     95% 0.00in /  0mm
01:25 44.5 °F /  6.9 °C 42.9 °F /  6.1 °C 29.67in /  1004.6hPa Calm     94% 0.00in /  0mm
01:30 44.4 °F /  6.9 °C 43.1 °F /  6.2 °C 29.67in /  1004.6hPa Calm     95% 0.00in /  0mm
01:35 44.0 °F /  6.7 °C 42.4 °F /  5.8 °C 29.68in /  1005hPa Calm     94% 0.00in /  0mm
01:40 43.7 °F /  6.5 °C 42.4 °F /  5.8 °C 29.68in /  1005hPa Calm     95% 0.00in /  0mm
01:45 43.8 °F /  6.6 °C 42.5 °F /  5.8 °C 29.68in /  1005hPa Calm     95% 0.00in /  0mm
01:50 43.7 °F /  6.5 °C 42.4 °F /  5.8 °C 29.68in /  1005hPa Calm     95% 0.00in /  0mm
01:55 43.4 °F /  6.3 °C 42.1 °F /  5.6 °C 29.68in /  1005hPa Calm     95% 0.00in /  0mm
02:00 43.2 °F /  6.2 °C 41.9 °F /  5.5 °C 29.68in /  1005hPa Calm     95% 0.00in /  0mm
02:05 43.0 °F /  6.1 °C 41.7 °F /  5.4 °C 29.68in /  1005hPa Calm     95% 0.00in /  0mm
02:10 42.9 °F /  6.1 °C 41.6 °F /  5.3 °C 29.69in /  1005.3hPa Calm     95% 0.00in /  0mm
02:15 42.6 °F /  5.9 °C 41.3 °F /  5.2 °C 29.69in /  1005.3hPa Calm     95% 0.00in /  0mm
02:20 42.1 °F /  5.6 °C 40.8 °F /  4.9 °C 29.69in /  1005.3hPa Calm     95% 0.00in /  0mm
02:25 41.8 °F /  5.4 °C 40.5 °F /  4.7 °C 29.69in /  1005.3hPa Calm     95% 0.00in /  0mm
02:30 41.5 °F /  5.3 °C 40.2 °F /  4.6 °C 29.69in /  1005.3hPa Calm     95% 0.00in /  0mm
02:35 41.9 °F /  5.5 °C 40.6 °F /  4.8 °C 29.69in /  1005.3hPa Calm     95% 0.00in /  0mm
02:40 42.0 °F /  5.6 °C 40.7 °F /  4.8 °C 29.69in /  1005.3hPa Calm     95% 0.00in /  0mm
02:45 41.8 °F /  5.4 °C 40.5 °F /  4.7 °C 29.68in /  1005hPa Calm     95% 0.00in /  0mm
02:50 41.8 °F /  5.4 °C 40.5 °F /  4.7 °C 29.69in /  1005.3hPa Calm     95% 0.00in /  0mm
02:55 41.5 °F /  5.3 °C 40.2 °F /  4.6 °C 29.69in /  1005.3hPa Calm     95% 0.00in /  0mm
03:00 41.0 °F /  5 °C 39.7 °F /  4.3 °C 29.69in /  1005.3hPa Calm     95% 0.00in /  0mm
03:05 40.7 °F /  4.8 °C 39.4 °F /  4.1 °C 29.69in /  1005.3hPa Calm     95% 0.00in /  0mm
03:10 40.4 °F /  4.7 °C 39.1 °F /  3.9 °C 29.69in /  1005.3hPa Calm     95% 0.00in /  0mm
03:15 40.3 °F /  4.6 °C 39.0 °F /  3.9 °C 29.68in /  1005hPa Calm     95% 0.00in /  0mm
03:20 40.1 °F /  4.5 °C 38.8 °F /  3.8 °C 29.68in /  1005hPa Calm     95% 0.00in /  0mm
03:25 40.1 °F /  4.5 °C 38.8 °F /  3.8 °C 29.68in /  1005hPa Calm     95% 0.00in /  0mm
03:30 40.0 °F /  4.4 °C 38.7 °F /  3.7 °C 29.68in /  1005hPa Calm     95% 0.00in /  0mm
03:35 39.8 °F /  4.3 °C 38.5 °F /  3.6 °C 29.68in /  1005hPa Calm     95% 0.00in /  0mm
03:40 39.4 °F /  4.1 °C 38.1 °F /  3.4 °C 29.68in /  1005hPa Calm     95% 0.00in /  0mm
03:45 39.1 °F /  3.9 °C 37.8 °F /  3.2 °C 29.68in /  1005hPa Calm     95% 0.00in /  0mm
03:50 39.1 °F /  3.9 °C 37.8 °F /  3.2 °C 29.68in /  1005hPa Calm     95% 0.00in /  0mm
03:54 39.0 °F /  3.9 °C 37.7 °F /  3.2 °C 29.68in /  1005hPa Calm     95% 0.00in /  0mm
04:00 38.9 °F /  3.8 °C 37.6 °F /  3.1 °C 29.68in /  1005hPa Calm     95% 0.00in /  0mm
04:05 38.8 °F /  3.8 °C 37.5 °F /  3.1 °C 29.68in /  1005hPa Calm     95% 0.00in /  0mm
04:10 38.7 °F /  3.7 °C 37.4 °F /  3 °C 29.68in /  1005hPa Calm     95% 0.00in /  0mm
04:15 38.8 °F /  3.8 °C 37.8 °F /  3.2 °C 29.68in /  1005hPa Calm     96% 0.00in /  0mm
04:20 38.9 °F /  3.8 °C 37.9 °F /  3.3 °C 29.68in /  1005hPa Calm     96% 0.00in /  0mm
04:25 39.1 °F /  3.9 °C 38.1 °F /  3.4 °C 29.68in /  1005hPa Calm   3.0mph /  4.8km/h 96% 0.00in /  0mm
04:30 39.0 °F /  3.9 °C 38.0 °F /  3.3 °C 29.68in /  1005hPa North 1.0mph /  1.6km/h 3.0mph /  4.8km/h 96% 0.00in /  0mm
04:35 39.1 °F /  3.9 °C 38.1 °F /  3.4 °C 29.68in /  1005hPa Calm   2.0mph /  3.2km/h 96% 0.00in /  0mm
04:40 39.0 °F /  3.9 °C 38.0 °F /  3.3 °C 29.68in /  1005hPa Calm   2.0mph /  3.2km/h 96% 0.00in /  0mm
04:45 38.9 °F /  3.8 °C 37.9 °F /  3.3 °C 29.68in /  1005hPa Calm   2.0mph /  3.2km/h 96% 0.00in /  0mm
04:50 38.8 °F /  3.8 °C 37.8 °F /  3.2 °C 29.68in /  1005hPa Calm     96% 0.00in /  0mm
04:55 38.6 °F /  3.7 °C 37.6 °F /  3.1 °C 29.68in /  1005hPa NNW 1.0mph /  1.6km/h 4.0mph /  6.4km/h 96% 0.00in /  0mm
04:59 38.4 °F /  3.6 °C 37.1 °F /  2.8 °C 29.68in /  1005hPa North 1.0mph /  1.6km/h 3.0mph /  4.8km/h 95% 0.00in /  0mm
05:05 38.4 °F /  3.6 °C 37.1 °F /  2.8 °C 29.68in /  1005hPa North 2.0mph /  3.2km/h 2.0mph /  3.2km/h 95% 0.00in /  0mm
05:10 38.3 °F /  3.5 °C 37.3 °F /  2.9 °C 29.68in /  1005hPa NNW 1.0mph /  1.6km/h 4.0mph /  6.4km/h 96% 0.00in /  0mm
05:15 38.3 °F /  3.5 °C 37.3 °F /  2.9 °C 29.68in /  1005hPa NNE 2.0mph /  3.2km/h 3.0mph /  4.8km/h 96% 0.00in /  0mm
05:20 38.1 °F /  3.4 °C 37.1 °F /  2.8 °C 29.67in /  1004.6hPa NNE 1.0mph /  1.6km/h 3.0mph /  4.8km/h 96% 0.00in /  0mm
05:25 38.2 °F /  3.4 °C 37.2 °F /  2.9 °C 29.67in /  1004.6hPa NE 1.0mph /  1.6km/h 4.0mph /  6.4km/h 96% 0.00in /  0mm
05:29 38.1 °F /  3.4 °C 37.1 °F /  2.8 °C 29.67in /  1004.6hPa NE 2.0mph /  3.2km/h 4.0mph /  6.4km/h 96% 0.00in /  0mm
05:35 38.1 °F /  3.4 °C 37.1 °F /  2.8 °C 29.67in /  1004.6hPa NE 1.0mph /  1.6km/h 3.0mph /  4.8km/h 96% 0.00in /  0mm
05:40 38.1 °F /  3.4 °C 37.1 °F /  2.8 °C 29.67in /  1004.6hPa NE 1.0mph /  1.6km/h 3.0mph /  4.8km/h 96% 0.00in /  0mm
05:45 38.0 °F /  3.3 °C 37.0 °F /  2.8 °C 29.67in /  1004.6hPa NE 1.0mph /  1.6km/h 4.0mph /  6.4km/h 96% 0.00in /  0mm
05:50 38.0 °F /  3.3 °C 37.0 °F /  2.8 °C 29.67in /  1004.6hPa NE 2.0mph /  3.2km/h 4.0mph /  6.4km/h 96% 0.00in /  0mm
05:55 38.0 °F /  3.3 °C 37.0 °F /  2.8 °C 29.67in /  1004.6hPa NE 1.0mph /  1.6km/h 3.0mph /  4.8km/h 96% 0.00in /  0mm
06:00 38.0 °F /  3.3 °C 37.0 °F /  2.8 °C 29.67in /  1004.6hPa NE 1.0mph /  1.6km/h 3.0mph /  4.8km/h 96% 0.00in /  0mm
06:04 38.0 °F /  3.3 °C 37.0 °F /  2.8 °C 29.67in /  1004.6hPa Calm     96% 0.00in /  0mm
06:09 38.0 °F /  3.3 °C 37.0 °F /  2.8 °C 29.67in /  1004.6hPa Calm     96% 0.00in /  0mm
06:15 38.0 °F /  3.3 °C 37.0 °F /  2.8 °C 29.67in /  1004.6hPa Calm     96% 0.00in /  0mm
06:20 38.0 °F /  3.3 °C 37.0 °F /  2.8 °C 29.68in /  1005hPa Calm     96% 0.00in /  0mm
06:25 37.9 °F /  3.3 °C 36.9 °F /  2.7 °C 29.67in /  1004.6hPa NE 2.0mph /  3.2km/h 3.0mph /  4.8km/h 96% 0.00in /  0mm
06:30 37.9 °F /  3.3 °C 36.9 °F /  2.7 °C 29.67in /  1004.6hPa NE 2.0mph /  3.2km/h 3.0mph /  4.8km/h 96% 0.00in /  0mm
06:35 37.8 °F /  3.2 °C 36.8 °F /  2.7 °C 29.68in /  1005hPa NE 2.0mph /  3.2km/h 3.0mph /  4.8km/h 96% 0.00in /  0mm
06:40 37.8 °F /  3.2 °C 36.8 °F /  2.7 °C 29.68in /  1005hPa NE 1.0mph /  1.6km/h 2.0mph /  3.2km/h 96% 0.00in /  0mm
06:45 37.8 °F /  3.2 °C 36.8 °F /  2.7 °C 29.67in /  1004.6hPa NE 2.0mph /  3.2km/h 2.0mph /  3.2km/h 96% 0.00in /  0mm
06:50 37.7 °F /  3.2 °C 36.7 °F /  2.6 °C 29.67in /  1004.6hPa NE 1.0mph /  1.6km/h 2.0mph /  3.2km/h 96% 0.00in /  0mm
06:55 37.7 °F /  3.2 °C 36.7 °F /  2.6 °C 29.67in /  1004.6hPa NE 1.0mph /  1.6km/h 4.0mph /  6.4km/h 96% 0.00in /  0mm
07:00 37.6 °F /  3.1 °C 36.6 °F /  2.6 °C 29.67in /  1004.6hPa NE 2.0mph /  3.2km/h 4.0mph /  6.4km/h 96% 0.00in /  0mm
07:05 37.5 °F /  3.1 °C 36.5 °F /  2.5 °C 29.67in /  1004.6hPa NE 1.0mph /  1.6km/h 5.0mph /  8km/h 96% 0.00in /  0mm
07:09 37.5 °F /  3.1 °C 36.5 °F /  2.5 °C 29.67in /  1004.6hPa NE 2.0mph /  3.2km/h 5.0mph /  8km/h 96% 0.00in /  0mm
07:14 37.4 °F /  3 °C 36.4 °F /  2.4 °C 29.67in /  1004.6hPa NE 5.0mph /  8km/h 9.0mph /  14.5km/h 96% 0.00in /  0mm
07:19 37.2 °F /  2.9 °C 36.2 °F /  2.3 °C 29.67in /  1004.6hPa East 5.0mph /  8km/h 8.0mph /  12.9km/h 96% 0.00in /  0mm
07:24 37.1 °F /  2.8 °C 36.1 °F /  2.3 °C 29.67in /  1004.6hPa ENE 3.0mph /  4.8km/h 7.0mph /  11.3km/h 96% 0.00in /  0mm
07:30 37.0 °F /  2.8 °C 36.0 °F /  2.2 °C 29.66in /  1004.3hPa NE 3.0mph /  4.8km/h 7.0mph /  11.3km/h 96% 0.00in /  0mm
07:35 36.9 °F /  2.7 °C 35.9 °F /  2.2 °C 29.66in /  1004.3hPa NE 3.0mph /  4.8km/h 8.0mph /  12.9km/h 96% 0.00in /  0mm
07:39 36.8 °F /  2.7 °C 35.8 °F /  2.1 °C 29.66in /  1004.3hPa NE 3.0mph /  4.8km/h 8.0mph /  12.9km/h 96% 0.00in /  0mm
07:44 36.8 °F /  2.7 °C 35.8 °F /  2.1 °C 29.66in /  1004.3hPa NE 3.0mph /  4.8km/h 8.0mph /  12.9km/h 96% 0.00in /  0mm
07:50 36.9 °F /  2.7 °C 35.9 °F /  2.2 °C 29.66in /  1004.3hPa ENE 3.0mph /  4.8km/h 8.0mph /  12.9km/h 96% 0.00in /  0mm
07:55 37.1 °F /  2.8 °C 36.1 °F /  2.3 °C 29.67in /  1004.6hPa ENE 4.0mph /  6.4km/h 8.0mph /  12.9km/h 96% 0.00in /  0mm
08:00 37.2 °F /  2.9 °C 36.2 °F /  2.3 °C 29.67in /  1004.6hPa NE 2.0mph /  3.2km/h 7.0mph /  11.3km/h 96% 0.00in /  0mm
08:05 37.2 °F /  2.9 °C 36.2 °F /  2.3 °C 29.67in /  1004.6hPa NE 2.0mph /  3.2km/h 6.0mph /  9.7km/h 96% 0.00in /  0mm
08:10 37.3 °F /  2.9 °C 36.3 °F /  2.4 °C 29.67in /  1004.6hPa ENE 3.0mph /  4.8km/h 5.0mph /  8km/h 96% 0.00in /  0mm
08:14 37.4 °F /  3 °C 36.4 °F /  2.4 °C 29.68in /  1005hPa ENE 3.0mph /  4.8km/h 5.0mph /  8km/h 96% 0.00in /  0mm
08:19 37.6 °F /  3.1 °C 36.6 °F /  2.6 °C 29.67in /  1004.6hPa ENE 1.0mph /  1.6km/h 4.0mph /  6.4km/h 96% 0.00in /  0mm
08:24 37.9 °F /  3.3 °C 36.9 °F /  2.7 °C 29.67in /  1004.6hPa ENE 2.0mph /  3.2km/h 4.0mph /  6.4km/h 96% 0.00in /  0mm
08:29 38.2 °F /  3.4 °C 37.2 °F /  2.9 °C 29.67in /  1004.6hPa NE 2.0mph /  3.2km/h 6.0mph /  9.7km/h 96% 0.00in /  0mm
08:34 38.4 °F /  3.6 °C 37.4 °F /  3 °C 29.68in /  1005hPa ENE 1.0mph /  1.6km/h 4.0mph /  6.4km/h 96% 0.00in /  0mm
08:40 38.7 °F /  3.7 °C 37.7 °F /  3.2 °C 29.68in /  1005hPa ENE 2.0mph /  3.2km/h 4.0mph /  6.4km/h 96% 0.00in /  0mm
08:44 38.8 °F /  3.8 °C 37.8 °F /  3.2 °C 29.68in /  1005hPa ENE 2.0mph /  3.2km/h 5.0mph /  8km/h 96% 0.00in /  0mm
08:49 39.0 °F /  3.9 °C 38.0 °F /  3.3 °C 29.69in /  1005.3hPa ENE 2.0mph /  3.2km/h 5.0mph /  8km/h 96% 0.00in /  0mm
08:55 39.1 °F /  3.9 °C 38.1 °F /  3.4 °C 29.69in /  1005.3hPa ENE 1.0mph /  1.6km/h 5.0mph /  8km/h 96% 0.00in /  0mm
09:00 39.3 °F /  4.1 °C 38.3 °F /  3.5 °C 29.70in /  1005.6hPa ENE 1.0mph /  1.6km/h 5.0mph /  8km/h 96% 0.00in /  0mm
09:05 39.5 °F /  4.2 °C 38.5 °F /  3.6 °C 29.70in /  1005.6hPa ENE 1.0mph /  1.6km/h 4.0mph /  6.4km/h 96% 0.00in /  0mm
09:10 39.6 °F /  4.2 °C 38.6 °F /  3.7 °C 29.70in /  1005.6hPa NE 3.0mph /  4.8km/h 4.0mph /  6.4km/h 96% 0.00in /  0mm
09:14 39.7 °F /  4.3 °C 38.7 °F /  3.7 °C 29.70in /  1005.6hPa NE 3.0mph /  4.8km/h 5.0mph /  8km/h 96% 0.00in /  0mm
09:19 39.8 °F /  4.3 °C 38.8 °F /  3.8 °C 29.70in /  1005.6hPa ENE 2.0mph /  3.2km/h 4.0mph /  6.4km/h 96% 0.00in /  0mm
09:24 39.9 °F /  4.4 °C 38.9 °F /  3.8 °C 29.70in /  1005.6hPa NE 2.0mph /  3.2km/h 5.0mph /  8km/h 96% 0.00in /  0mm
09:29 40.1 °F /  4.5 °C 39.1 °F /  3.9 °C 29.71in /  1006hPa NE 3.0mph /  4.8km/h 4.0mph /  6.4km/h 96% 0.00in /  0mm
09:34 40.2 °F /  4.6 °C 39.2 °F /  4 °C 29.71in /  1006hPa ENE 2.0mph /  3.2km/h 4.0mph /  6.4km/h 96% 0.00in /  0mm
09:39 40.4 °F /  4.7 °C 39.4 °F /  4.1 °C 29.71in /  1006hPa ENE 3.0mph /  4.8km/h 4.0mph /  6.4km/h 96% 0.00in /  0mm
09:44 40.6 °F /  4.8 °C 39.5 °F /  4.2 °C 29.71in /  1006hPa NE 4.0mph /  6.4km/h 4.0mph /  6.4km/h 96% 0.00in /  0mm
09:49 40.8 °F /  4.9 °C 39.7 °F /  4.3 °C 29.71in /  1006hPa NNE 2.0mph /  3.2km/h 6.0mph /  9.7km/h 96% 0.00in /  0mm
09:54 41.0 °F /  5 °C 39.9 °F /  4.4 °C 29.71in /  1006hPa NE 4.0mph /  6.4km/h 7.0mph /  11.3km/h 96% 0.00in /  0mm
09:59 41.2 °F /  5.1 °C 40.1 °F /  4.5 °C 29.71in /  1006hPa ENE 1.0mph /  1.6km/h 5.0mph /  8km/h 96% 0.00in /  0mm
10:04 41.5 °F /  5.3 °C 40.7 °F /  4.8 °C 29.71in /  1006hPa NNE 2.0mph /  3.2km/h 7.0mph /  11.3km/h 97% 0.00in /  0mm
10:09 41.8 °F /  5.4 °C 41.0 °F /  5 °C 29.72in /  1006.3hPa NE 3.0mph /  4.8km/h 7.0mph /  11.3km/h 97% 0.00in /  0mm
10:15 42.2 °F /  5.7 °C 41.4 °F /  5.2 °C 29.72in /  1006.3hPa ENE 3.0mph /  4.8km/h 7.0mph /  11.3km/h 97% 0.00in /  0mm
10:19 42.5 °F /  5.8 °C 41.4 °F /  5.2 °C 29.72in /  1006.3hPa NE 3.0mph /  4.8km/h 7.0mph /  11.3km/h 96% 0.00in /  0mm
10:24 42.9 °F /  6.1 °C 41.8 °F /  5.4 °C 29.71in /  1006hPa NE 3.0mph /  4.8km/h 7.0mph /  11.3km/h 96% 0.00in /  0mm
10:29 43.3 °F /  6.3 °C 42.2 °F /  5.7 °C 29.71in /  1006hPa NE 3.0mph /  4.8km/h 7.0mph /  11.3km/h 96% 0.00in /  0mm
10:35 43.8 °F /  6.6 °C 42.7 °F /  5.9 °C 29.72in /  1006.3hPa NE 3.0mph /  4.8km/h 7.0mph /  11.3km/h 96% 0.00in /  0mm
10:40 44.2 °F /  6.8 °C 43.1 °F /  6.2 °C 29.71in /  1006hPa NE 1.0mph /  1.6km/h 5.0mph /  8km/h 96% 0.00in /  0mm
10:45 44.7 °F /  7.1 °C 43.6 °F /  6.4 °C 29.72in /  1006.3hPa ENE 2.0mph /  3.2km/h 6.0mph /  9.7km/h 96% 0.00in /  0mm
10:49 44.8 °F /  7.1 °C 43.7 °F /  6.5 °C 29.72in /  1006.3hPa NE 3.0mph /  4.8km/h 6.0mph /  9.7km/h 96% 0.00in /  0mm
10:54 44.9 °F /  7.2 °C 43.6 °F /  6.4 °C 29.71in /  1006hPa NE 4.0mph /  6.4km/h 7.0mph /  11.3km/h 95% 0.00in /  0mm
10:59 45.2 °F /  7.3 °C 43.9 °F /  6.6 °C 29.71in /  1006hPa NE 4.0mph /  6.4km/h 7.0mph /  11.3km/h 95% 0.00in /  0mm
11:04 45.6 °F /  7.6 °C 44.3 °F /  6.8 °C 29.71in /  1006hPa ENE 4.0mph /  6.4km/h 7.0mph /  11.3km/h 95% 0.00in /  0mm
11:09 45.9 °F /  7.7 °C 44.5 °F /  6.9 °C 29.71in /  1006hPa NE 5.0mph /  8km/h 6.0mph /  9.7km/h 95% 0.00in /  0mm
11:14 46.1 °F /  7.8 °C 44.7 °F /  7.1 °C 29.71in /  1006hPa NE 3.0mph /  4.8km/h 7.0mph /  11.3km/h 95% 0.00in /  0mm
11:19 46.3 °F /  7.9 °C 44.7 °F /  7.1 °C 29.71in /  1006hPa NE 3.0mph /  4.8km/h 6.0mph /  9.7km/h 94% 0.00in /  0mm
11:24 46.6 °F /  8.1 °C 45.0 °F /  7.2 °C 29.71in /  1006hPa NE 3.0mph /  4.8km/h 6.0mph /  9.7km/h 94% 0.00in /  0mm
11:29 46.7 °F /  8.2 °C 45.1 °F /  7.3 °C 29.71in /  1006hPa NE 1.0mph /  1.6km/h 5.0mph /  8km/h 94% 0.00in /  0mm
11:34 47.1 °F /  8.4 °C 45.2 °F /  7.3 °C 29.70in /  1005.6hPa NE 1.0mph /  1.6km/h 4.0mph /  6.4km/h 93% 0.00in /  0mm
11:39 47.1 °F /  8.4 °C 45.2 °F /  7.3 °C 29.70in /  1005.6hPa ENE 4.0mph /  6.4km/h 7.0mph /  11.3km/h 93% 0.00in /  0mm
11:45 47.0 °F /  8.3 °C 45.1 °F /  7.3 °C 29.70in /  1005.6hPa ENE 3.0mph /  4.8km/h 7.0mph /  11.3km/h 93% 0.00in /  0mm
11:50 46.7 °F /  8.2 °C 44.5 °F /  6.9 °C 29.70in /  1005.6hPa NNE 3.0mph /  4.8km/h 5.0mph /  8km/h 92% 0.00in /  0mm
11:54 46.7 °F /  8.2 °C 44.5 °F /  6.9 °C 29.70in /  1005.6hPa NE 2.0mph /  3.2km/h 5.0mph /  8km/h 92% 0.00in /  0mm
11:59 46.6 °F /  8.1 °C 44.4 °F /  6.9 °C 29.70in /  1005.6hPa NNE 2.0mph /  3.2km/h 5.0mph /  8km/h 92% 0.00in /  0mm
12:04 46.5 °F /  8.1 °C 44.3 °F /  6.8 °C 29.69in /  1005.3hPa NNE 2.0mph /  3.2km/h 4.0mph /  6.4km/h 92% 0.00in /  0mm
12:09 46.5 °F /  8.1 °C 44.3 °F /  6.8 °C 29.69in /  1005.3hPa NNE 3.0mph /  4.8km/h 4.0mph /  6.4km/h 92% 0.00in /  0mm
12:14 46.3 °F /  7.9 °C 44.1 °F /  6.7 °C 29.69in /  1005.3hPa NE 6.0mph /  9.7km/h 7.0mph /  11.3km/h 92% 0.00in /  0mm
12:19 46.2 °F /  7.9 °C 44.0 °F /  6.7 °C 29.69in /  1005.3hPa NE 3.0mph /  4.8km/h 7.0mph /  11.3km/h 92% 0.00in /  0mm
12:24 46.1 °F /  7.8 °C 43.9 °F /  6.6 °C 29.68in /  1005hPa NE 3.0mph /  4.8km/h 7.0mph /  11.3km/h 92% 0.00in /  0mm
12:29 45.9 °F /  7.7 °C 43.7 °F /  6.5 °C 29.68in /  1005hPa NNE 3.0mph /  4.8km/h 7.0mph /  11.3km/h 92% 0.00in /  0mm
12:34 45.7 °F /  7.6 °C 43.8 °F /  6.6 °C 29.68in /  1005hPa NE 3.0mph /  4.8km/h 7.0mph /  11.3km/h 93% 0.00in /  0mm
12:39 45.4 °F /  7.4 °C 43.5 °F /  6.4 °C 29.68in /  1005hPa NNE 1.0mph /  1.6km/h 4.0mph /  6.4km/h 93% 0.00in /  0mm
12:44 45.2 °F /  7.3 °C 43.3 °F /  6.3 °C 29.68in /  1005hPa NNE 4.0mph /  6.4km/h 6.0mph /  9.7km/h 93% 0.00in /  0mm
12:49 44.8 °F /  7.1 °C 42.9 °F /  6.1 °C 29.68in /  1005hPa NNE 2.0mph /  3.2km/h 7.0mph /  11.3km/h 93% 0.00in /  0mm
12:54 44.8 °F /  7.1 °C 43.2 °F /  6.2 °C 29.67in /  1004.6hPa NE 2.0mph /  3.2km/h 10.0mph /  16.1km/h 94% 0.00in /  0mm
12:59 44.9 °F /  7.2 °C 43.3 °F /  6.3 °C 29.67in /  1004.6hPa NE 3.0mph /  4.8km/h 10.0mph /  16.1km/h 94% 0.01in /  0.25mm
13:04 45.1 °F /  7.3 °C 43.5 °F /  6.4 °C 29.67in /  1004.6hPa NNE 2.0mph /  3.2km/h 4.0mph /  6.4km/h 94% 0.01in /  0.25mm
13:09 45.0 °F /  7.2 °C 43.4 °F /  6.3 °C 29.67in /  1004.6hPa NE 2.0mph /  3.2km/h 6.0mph /  9.7km/h 94% 0.02in /  0.51mm
13:14 45.0 °F /  7.2 °C 43.4 °F /  6.3 °C 29.67in /  1004.6hPa NE 3.0mph /  4.8km/h 6.0mph /  9.7km/h 94% 0.03in /  0.76mm
13:19 45.0 °F /  7.2 °C 43.4 °F /  6.3 °C 29.67in /  1004.6hPa NE 3.0mph /  4.8km/h 8.0mph /  12.9km/h 94% 0.03in /  0.76mm
13:24 45.0 °F /  7.2 °C 43.4 °F /  6.3 °C 29.67in /  1004.6hPa ENE 2.0mph /  3.2km/h 7.0mph /  11.3km/h 94% 0.03in /  0.76mm
13:30 45.0 °F /  7.2 °C 43.4 °F /  6.3 °C 29.67in /  1004.6hPa NE 3.0mph /  4.8km/h 7.0mph /  11.3km/h 94% 0.03in /  0.76mm
13:34 45.0 °F /  7.2 °C 43.4 °F /  6.3 °C 29.67in /  1004.6hPa NE 3.0mph /  4.8km/h 6.0mph /  9.7km/h 94% 0.03in /  0.76mm
13:39 45.0 °F /  7.2 °C 43.4 °F /  6.3 °C 29.67in /  1004.6hPa NNE 2.0mph /  3.2km/h 8.0mph /  12.9km/h 94% 0.03in /  0.76mm
13:44 45.0 °F /  7.2 °C 43.4 °F /  6.3 °C 29.67in /  1004.6hPa NNE 2.0mph /  3.2km/h 4.0mph /  6.4km/h 94% 0.04in /  1.02mm
13:49 45.0 °F /  7.2 °C 43.7 °F /  6.5 °C 29.67in /  1004.6hPa NNE 2.0mph /  3.2km/h 5.0mph /  8km/h 95% 0.05in /  1.27mm
13:54 45.0 °F /  7.2 °C 43.7 °F /  6.5 °C 29.66in /  1004.3hPa NNE 4.0mph /  6.4km/h 4.0mph /  6.4km/h 95% 0.06in /  1.52mm
13:59 45.2 °F /  7.3 °C 43.9 °F /  6.6 °C 29.66in /  1004.3hPa NE 2.0mph /  3.2km/h 4.0mph /  6.4km/h 95% 0.06in /  1.52mm
14:04 45.1 °F /  7.3 °C 43.8 °F /  6.6 °C 29.66in /  1004.3hPa NE 3.0mph /  4.8km/h 7.0mph /  11.3km/h 95% 0.06in /  1.52mm
14:09 45.1 °F /  7.3 °C 43.8 °F /  6.6 °C 29.66in /  1004.3hPa NE 3.0mph /  4.8km/h 7.0mph /  11.3km/h 95% 0.06in /  1.52mm
14:14 45.2 °F /  7.3 °C 43.9 °F /  6.6 °C 29.66in /  1004.3hPa NE 3.0mph /  4.8km/h 7.0mph /  11.3km/h 95% 0.05in /  1.27mm
14:19 45.1 °F /  7.3 °C 43.8 °F /  6.6 °C 29.65in /  1003.9hPa NE 4.0mph /  6.4km/h 9.0mph /  14.5km/h 95% 0.05in /  1.27mm
14:24 45.0 °F /  7.2 °C 43.7 °F /  6.5 °C 29.65in /  1003.9hPa NE 4.0mph /  6.4km/h 9.0mph /  14.5km/h 95% 0.06in /  1.52mm
14:30 44.9 °F /  7.2 °C 43.6 °F /  6.4 °C 29.65in /  1003.9hPa NE 5.0mph /  8km/h 11.0mph /  17.7km/h 95% 0.06in /  1.52mm
14:34 44.8 °F /  7.1 °C 43.5 °F /  6.4 °C 29.65in /  1003.9hPa NE 3.0mph /  4.8km/h 9.0mph /  14.5km/h 95% 0.06in /  1.52mm
14:39 44.7 °F /  7.1 °C 43.1 °F /  6.2 °C 29.65in /  1003.9hPa NE 4.0mph /  6.4km/h 11.0mph /  17.7km/h 94% 0.07in /  1.78mm
14:44 44.6 °F /  7 °C 43.0 °F /  6.1 °C 29.65in /  1003.9hPa ENE 5.0mph /  8km/h 10.0mph /  16.1km/h 94% 0.06in /  1.52mm
14:49 44.6 °F /  7 °C 43.3 °F /  6.3 °C 29.65in /  1003.9hPa ESE 7.0mph /  11.3km/h 9.0mph /  14.5km/h 95% 0.05in /  1.27mm
14:54 44.6 °F /  7 °C 43.3 °F /  6.3 °C 29.65in /  1003.9hPa NE 5.0mph /  8km/h 9.0mph /  14.5km/h 95% 0.04in /  1.02mm
14:59 44.6 °F /  7 °C 43.3 °F /  6.3 °C 29.66in /  1004.3hPa East 5.0mph /  8km/h 10.0mph /  16.1km/h 95% 0.03in /  0.76mm
15:04 44.7 °F /  7.1 °C 43.4 °F /  6.3 °C 29.66in /  1004.3hPa NE 5.0mph /  8km/h 10.0mph /  16.1km/h 95% 0.03in /  0.76mm
15:09 44.7 °F /  7.1 °C 43.4 °F /  6.3 °C 29.66in /  1004.3hPa NE 5.0mph /  8km/h 10.0mph /  16.1km/h 95% 0.03in /  0.76mm
15:14 44.7 °F /  7.1 °C 43.4 °F /  6.3 °C 29.66in /  1004.3hPa ENE 4.0mph /  6.4km/h 9.0mph /  14.5km/h 95% 0.03in /  0.76mm
15:19 44.7 °F /  7.1 °C 43.4 °F /  6.3 °C 29.66in /  1004.3hPa ENE 5.0mph /  8km/h 11.0mph /  17.7km/h 95% 0.03in /  0.76mm
15:24 44.7 °F /  7.1 °C 43.1 °F /  6.2 °C 29.67in /  1004.6hPa ENE 6.0mph /  9.7km/h 12.0mph /  19.3km/h 94% 0.02in /  0.51mm
15:29 44.7 °F /  7.1 °C 43.4 °F /  6.3 °C 29.67in /  1004.6hPa NE 6.0mph /  9.7km/h 12.0mph /  19.3km/h 95% 0.02in /  0.51mm
15:34 44.7 °F /  7.1 °C 43.4 °F /  6.3 °C 29.67in /  1004.6hPa NNE 3.0mph /  4.8km/h 11.0mph /  17.7km/h 95% 0.02in /  0.51mm
15:39 44.8 °F /  7.1 °C 43.5 °F /  6.4 °C 29.66in /  1004.3hPa NE 6.0mph /  9.7km/h 11.0mph /  17.7km/h 95% 0.01in /  0.25mm
15:44 44.8 °F /  7.1 °C 43.5 °F /  6.4 °C 29.67in /  1004.6hPa NE 4.0mph /  6.4km/h 12.0mph /  19.3km/h 95% 0.01in /  0.25mm
15:49 44.8 °F /  7.1 °C 43.5 °F /  6.4 °C 29.67in /  1004.6hPa NE 5.0mph /  8km/h 9.0mph /  14.5km/h 95% 0.01in /  0.25mm
15:54 44.7 °F /  7.1 °C 43.4 °F /  6.3 °C 29.67in /  1004.6hPa NNE 7.0mph /  11.3km/h 11.0mph /  17.7km/h 95% 0.01in /  0.25mm
15:59 44.7 °F /  7.1 °C 43.4 °F /  6.3 °C 29.67in /  1004.6hPa East 7.0mph /  11.3km/h 11.0mph /  17.7km/h 95% 0.01in /  0.25mm
16:04 44.6 °F /  7 °C 43.0 °F /  6.1 °C 29.67in /  1004.6hPa NE 7.0mph /  11.3km/h 11.0mph /  17.7km/h 94% 0.01in /  0.25mm
16:09 44.4 °F /  6.9 °C 42.8 °F /  6 °C 29.67in /  1004.6hPa NE 6.0mph /  9.7km/h 13.0mph /  20.9km/h 94% 0.00in /  0mm
16:14 44.3 °F /  6.8 °C 42.7 °F /  5.9 °C 29.67in /  1004.6hPa NE 7.0mph /  11.3km/h 15.0mph /  24.1km/h 94% 0.00in /  0mm
16:19 44.2 °F /  6.8 °C 42.9 °F /  6.1 °C 29.67in /  1004.6hPa NE 6.0mph /  9.7km/h 15.0mph /  24.1km/h 95% 0.00in /  0mm
16:24 43.9 °F /  6.6 °C 42.3 °F /  5.7 °C 29.67in /  1004.6hPa NE 6.0mph /  9.7km/h 13.0mph /  20.9km/h 94% 0.00in /  0mm
16:29 43.6 °F /  6.4 °C 42.0 °F /  5.6 °C 29.67in /  1004.6hPa NE 6.0mph /  9.7km/h 13.0mph /  20.9km/h 94% 0.00in /  0mm
16:34 43.3 °F /  6.3 °C 41.7 °F /  5.4 °C 29.67in /  1004.6hPa NE 7.0mph /  11.3km/h 15.0mph /  24.1km/h 94% 0.00in /  0mm
16:39 43.0 °F /  6.1 °C 41.4 °F /  5.2 °C 29.67in /  1004.6hPa East 9.0mph /  14.5km/h 12.0mph /  19.3km/h 94% 0.00in /  0mm
16:44 42.8 °F /  6 °C 41.2 °F /  5.1 °C 29.67in /  1004.6hPa NE 6.0mph /  9.7km/h 13.0mph /  20.9km/h 94% 0.00in /  0mm
16:49 42.7 °F /  5.9 °C 41.1 °F /  5.1 °C 29.67in /  1004.6hPa NE 9.0mph /  14.5km/h 13.0mph /  20.9km/h 94% 0.00in /  0mm
16:54 42.4 °F /  5.8 °C 40.8 °F /  4.9 °C 29.67in /  1004.6hPa ENE 10.0mph /  16.1km/h 14.0mph /  22.5km/h 94% 0.00in /  0mm
16:59 42.2 °F /  5.7 °C 40.6 °F /  4.8 °C 29.68in /  1005hPa NNE 13.0mph /  20.9km/h 16.0mph /  25.7km/h 94% 0.00in /  0mm
17:04 42.0 °F /  5.6 °C 40.4 °F /  4.7 °C 29.68in /  1005hPa NE 7.0mph /  11.3km/h 16.0mph /  25.7km/h 94% 0.00in /  0mm
17:09 41.9 °F /  5.5 °C 40.3 °F /  4.6 °C 29.68in /  1005hPa NE 5.0mph /  8km/h 15.0mph /  24.1km/h 94% 0.00in /  0mm
17:14 41.8 °F /  5.4 °C 40.2 °F /  4.6 °C 29.68in /  1005hPa NE 8.0mph /  12.9km/h 15.0mph /  24.1km/h 94% 0.00in /  0mm
17:19 41.6 °F /  5.3 °C 40.0 °F /  4.4 °C 29.68in /  1005hPa NE 9.0mph /  14.5km/h 18.0mph /  29km/h 94% 0.00in /  0mm
17:24 41.5 °F /  5.3 °C 39.9 °F /  4.4 °C 29.68in /  1005hPa NE 10.0mph /  16.1km/h 18.0mph /  29km/h 94% 0.00in /  0mm
17:29 41.3 °F /  5.2 °C 39.7 °F /  4.3 °C 29.68in /  1005hPa NE 9.0mph /  14.5km/h 16.0mph /  25.7km/h 94% 0.00in /  0mm
17:34 41.3 °F /  5.2 °C 39.7 °F /  4.3 °C 29.69in /  1005.3hPa NE 7.0mph /  11.3km/h 15.0mph /  24.1km/h 94% 0.00in /  0mm
17:39 41.2 °F /  5.1 °C 39.9 °F /  4.4 °C 29.69in /  1005.3hPa ENE 8.0mph /  12.9km/h 14.0mph /  22.5km/h 95% 0.00in /  0mm
17:44 41.1 °F /  5.1 °C 39.8 °F /  4.3 °C 29.69in /  1005.3hPa NE 6.0mph /  9.7km/h 14.0mph /  22.5km/h 95% 0.00in /  0mm
17:49 41.0 °F /  5 °C 39.7 °F /  4.3 °C 29.69in /  1005.3hPa NE 7.0mph /  11.3km/h 15.0mph /  24.1km/h 95% 0.00in /  0mm
17:54 40.9 °F /  4.9 °C 39.3 °F /  4.1 °C 29.69in /  1005.3hPa NE 9.0mph /  14.5km/h 15.0mph /  24.1km/h 94% 0.00in /  0mm
17:59 40.8 °F /  4.9 °C 39.2 °F /  4 °C 29.69in /  1005.3hPa NE 8.0mph /  12.9km/h 15.0mph /  24.1km/h 94% 0.00in /  0mm
18:04 40.7 °F /  4.8 °C 39.1 °F /  3.9 °C 29.69in /  1005.3hPa ENE 10.0mph /  16.1km/h 14.0mph /  22.5km/h 94% 0.00in /  0mm
18:09 40.5 °F /  4.7 °C 39.2 °F /  4 °C 29.70in /  1005.6hPa NE 8.0mph /  12.9km/h 16.0mph /  25.7km/h 95% 0.00in /  0mm
18:14 40.4 °F /  4.7 °C 39.1 °F /  3.9 °C 29.69in /  1005.3hPa NE 8.0mph /  12.9km/h 17.0mph /  27.4km/h 95% 0.00in /  0mm
18:19 40.4 °F /  4.7 °C 38.8 °F /  3.8 °C 29.69in /  1005.3hPa NNE 6.0mph /  9.7km/h 15.0mph /  24.1km/h 94% 0.00in /  0mm
18:24 40.3 °F /  4.6 °C 39.0 °F /  3.9 °C 29.69in /  1005.3hPa NE 13.0mph /  20.9km/h 15.0mph /  24.1km/h 95% 0.00in /  0mm
18:29 40.2 °F /  4.6 °C 38.9 °F /  3.8 °C 29.69in /  1005.3hPa NE 8.0mph /  12.9km/h 18.0mph /  29km/h 95% 0.00in /  0mm
18:34 40.2 °F /  4.6 °C 38.9 °F /  3.8 °C 29.70in /  1005.6hPa ENE 7.0mph /  11.3km/h 17.0mph /  27.4km/h 95% 0.00in /  0mm
18:39 40.1 °F /  4.5 °C 38.8 °F /  3.8 °C 29.70in /  1005.6hPa East 5.0mph /  8km/h 14.0mph /  22.5km/h 95% 0.00in /  0mm
18:44 40.1 °F /  4.5 °C 38.8 °F /  3.8 °C 29.70in /  1005.6hPa NE 7.0mph /  11.3km/h 16.0mph /  25.7km/h 95% 0.00in /  0mm
18:49 40.1 °F /  4.5 °C 38.8 °F /  3.8 °C 29.70in /  1005.6hPa ENE 8.0mph /  12.9km/h 18.0mph /  29km/h 95% 0.00in /  0mm
18:54 40.1 °F /  4.5 °C 38.8 °F /  3.8 °C 29.71in /  1006hPa NE 8.0mph /  12.9km/h 15.0mph /  24.1km/h 95% 0.00in /  0mm
18:59 40.0 °F /  4.4 °C 38.7 °F /  3.7 °C 29.71in /  1006hPa ENE 7.0mph /  11.3km/h 15.0mph /  24.1km/h 95% 0.00in /  0mm
19:04 39.9 °F /  4.4 °C 38.6 °F /  3.7 °C 29.71in /  1006hPa NE 7.0mph /  11.3km/h 14.0mph /  22.5km/h 95% 0.00in /  0mm
19:09 39.8 °F /  4.3 °C 38.5 °F /  3.6 °C 29.71in /  1006hPa NE 7.0mph /  11.3km/h 15.0mph /  24.1km/h 95% 0.00in /  0mm
19:14 39.7 °F /  4.3 °C 38.4 °F /  3.6 °C 29.71in /  1006hPa NE 8.0mph /  12.9km/h 16.0mph /  25.7km/h 95% 0.00in /  0mm
19:19 39.5 °F /  4.2 °C 38.2 °F /  3.4 °C 29.71in /  1006hPa ENE 11.0mph /  17.7km/h 20.0mph /  32.2km/h 95% 0.00in /  0mm
19:24 39.4 °F /  4.1 °C 38.1 °F /  3.4 °C 29.71in /  1006hPa East 7.0mph /  11.3km/h 17.0mph /  27.4km/h 95% 0.00in /  0mm
19:29 39.4 °F /  4.1 °C 38.1 °F /  3.4 °C 29.71in /  1006hPa NE 3.0mph /  4.8km/h 15.0mph /  24.1km/h 95% 0.00in /  0mm
19:34 39.3 °F /  4.1 °C 38.0 °F /  3.3 °C 29.71in /  1006hPa ENE 11.0mph /  17.7km/h 14.0mph /  22.5km/h 95% 0.00in /  0mm
19:39 39.3 °F /  4.1 °C 38.0 °F /  3.3 °C 29.72in /  1006.3hPa NE 6.0mph /  9.7km/h 11.0mph /  17.7km/h 95% 0.00in /  0mm
19:44 39.1 °F /  3.9 °C 37.8 °F /  3.2 °C 29.72in /  1006.3hPa NE 7.0mph /  11.3km/h 18.0mph /  29km/h 95% 0.00in /  0mm
19:49 39.0 °F /  3.9 °C 37.7 °F /  3.2 °C 29.72in /  1006.3hPa NE 8.0mph /  12.9km/h 18.0mph /  29km/h 95% 0.00in /  0mm
19:54 38.9 °F /  3.8 °C 37.6 °F /  3.1 °C 29.72in /  1006.3hPa NE 7.0mph /  11.3km/h 14.0mph /  22.5km/h 95% 0.00in /  0mm
19:59 38.9 °F /  3.8 °C 37.6 °F /  3.1 °C 29.72in /  1006.3hPa NE 11.0mph /  17.7km/h 15.0mph /  24.1km/h 95% 0.00in /  0mm
20:04 38.8 °F /  3.8 °C 37.5 °F /  3.1 °C 29.72in /  1006.3hPa ENE 8.0mph /  12.9km/h 15.0mph /  24.1km/h 95% 0.00in /  0mm
20:09 38.7 °F /  3.7 °C 37.4 °F /  3 °C 29.72in /  1006.3hPa ENE 12.0mph /  19.3km/h 12.0mph /  19.3km/h 95% 0.00in /  0mm
20:14 38.6 °F /  3.7 °C 37.3 °F /  2.9 °C 29.72in /  1006.3hPa ENE 8.0mph /  12.9km/h 15.0mph /  24.1km/h 95% 0.00in /  0mm
20:19 38.5 °F /  3.6 °C 37.2 °F /  2.9 °C 29.73in /  1006.7hPa ENE 8.0mph /  12.9km/h 15.0mph /  24.1km/h 95% 0.00in /  0mm
20:24 38.5 °F /  3.6 °C 37.2 °F /  2.9 °C 29.73in /  1006.7hPa East 6.0mph /  9.7km/h 10.0mph /  16.1km/h 95% 0.00in /  0mm
20:29 38.4 °F /  3.6 °C 37.1 °F /  2.8 °C 29.72in /  1006.3hPa ENE 11.0mph /  17.7km/h 12.0mph /  19.3km/h 95% 0.00in /  0mm
20:34 38.4 °F /  3.6 °C 37.1 °F /  2.8 °C 29.72in /  1006.3hPa NE 10.0mph /  16.1km/h 13.0mph /  20.9km/h 95% 0.00in /  0mm
20:39 38.4 °F /  3.6 °C 37.1 °F /  2.8 °C 29.72in /  1006.3hPa ENE 3.0mph /  4.8km/h 12.0mph /  19.3km/h 95% 0.00in /  0mm
20:44 38.4 °F /  3.6 °C 37.1 °F /  2.8 °C 29.73in /  1006.7hPa East 7.0mph /  11.3km/h 11.0mph /  17.7km/h 95% 0.00in /  0mm
20:49 38.4 °F /  3.6 °C 37.1 °F /  2.8 °C 29.73in /  1006.7hPa ENE 6.0mph /  9.7km/h 13.0mph /  20.9km/h 95% 0.00in /  0mm
20:54 38.3 °F /  3.5 °C 37.0 °F /  2.8 °C 29.73in /  1006.7hPa ENE 11.0mph /  17.7km/h 11.0mph /  17.7km/h 95% 0.00in /  0mm
20:59 38.3 °F /  3.5 °C 37.0 °F /  2.8 °C 29.73in /  1006.7hPa ENE 9.0mph /  14.5km/h 12.0mph /  19.3km/h 95% 0.00in /  0mm
21:04 38.2 °F /  3.4 °C 36.9 °F /  2.7 °C 29.73in /  1006.7hPa NE 5.0mph /  8km/h 13.0mph /  20.9km/h 95% 0.00in /  0mm
21:09 38.0 °F /  3.3 °C 36.7 °F /  2.6 °C 29.73in /  1006.7hPa NE 4.0mph /  6.4km/h 11.0mph /  17.7km/h 95% 0.00in /  0mm
21:14 38.0 °F /  3.3 °C 36.7 °F /  2.6 °C 29.73in /  1006.7hPa ENE 11.0mph /  17.7km/h 13.0mph /  20.9km/h 95% 0.00in /  0mm
21:19 38.0 °F /  3.3 °C 36.7 °F /  2.6 °C 29.72in /  1006.3hPa NE 8.0mph /  12.9km/h 15.0mph /  24.1km/h 95% 0.00in /  0mm
21:24 37.9 °F /  3.3 °C 36.6 °F /  2.6 °C 29.73in /  1006.7hPa NE 8.0mph /  12.9km/h 16.0mph /  25.7km/h 95% 0.00in /  0mm
21:29 37.8 °F /  3.2 °C 36.5 °F /  2.5 °C 29.73in /  1006.7hPa NE 8.0mph /  12.9km/h 16.0mph /  25.7km/h 95% 0.00in /  0mm
21:34 37.7 °F /  3.2 °C 36.4 °F /  2.4 °C 29.73in /  1006.7hPa NNE 4.0mph /  6.4km/h 11.0mph /  17.7km/h 95% 0.00in /  0mm
21:39 37.8 °F /  3.2 °C 36.5 °F /  2.5 °C 29.73in /  1006.7hPa NE 8.0mph /  12.9km/h 15.0mph /  24.1km/h 95% 0.00in /  0mm
21:44 37.7 °F /  3.2 °C 36.4 °F /  2.4 °C 29.73in /  1006.7hPa East 14.0mph /  22.5km/h 15.0mph /  24.1km/h 95% 0.00in /  0mm
21:49 37.7 °F /  3.2 °C 36.4 °F /  2.4 °C 29.73in /  1006.7hPa ENE 8.0mph /  12.9km/h 15.0mph /  24.1km/h 95% 0.00in /  0mm
21:54 37.7 °F /  3.2 °C 36.4 °F /  2.4 °C 29.73in /  1006.7hPa ENE 8.0mph /  12.9km/h 15.0mph /  24.1km/h 95% 0.00in /  0mm
21:59 37.6 °F /  3.1 °C 36.3 °F /  2.4 °C 29.73in /  1006.7hPa NE 8.0mph /  12.9km/h 15.0mph /  24.1km/h 95% 0.00in /  0mm
22:04 37.6 °F /  3.1 °C 36.3 °F /  2.4 °C 29.73in /  1006.7hPa NE 3.0mph /  4.8km/h 13.0mph /  20.9km/h 95% 0.00in /  0mm
22:09 37.6 °F /  3.1 °C 36.3 °F /  2.4 °C 29.73in /  1006.7hPa NE 12.0mph /  19.3km/h 14.0mph /  22.5km/h 95% 0.00in /  0mm
22:14 37.5 °F /  3.1 °C 36.2 °F /  2.3 °C 29.73in /  1006.7hPa ENE 9.0mph /  14.5km/h 16.0mph /  25.7km/h 95% 0.00in /  0mm
22:19 37.5 °F /  3.1 °C 35.9 °F /  2.2 °C 29.73in /  1006.7hPa NE 8.0mph /  12.9km/h 16.0mph /  25.7km/h 94% 0.00in /  0mm
22:24 37.4 °F /  3 °C 35.8 °F /  2.1 °C 29.72in /  1006.3hPa ENE 7.0mph /  11.3km/h 14.0mph /  22.5km/h 94% 0.00in /  0mm
22:29 37.4 °F /  3 °C 35.8 °F /  2.1 °C 29.72in /  1006.3hPa NE 7.0mph /  11.3km/h 17.0mph /  27.4km/h 94% 0.00in /  0mm
22:34 37.4 °F /  3 °C 35.8 °F /  2.1 °C 29.73in /  1006.7hPa NE 8.0mph /  12.9km/h 17.0mph /  27.4km/h 94% 0.00in /  0mm
22:39 37.3 °F /  2.9 °C 35.7 °F /  2.1 °C 29.72in /  1006.3hPa ENE 8.0mph /  12.9km/h 13.0mph /  20.9km/h 94% 0.00in /  0mm
22:44 37.3 °F /  2.9 °C 35.7 °F /  2.1 °C 29.73in /  1006.7hPa ENE 7.0mph /  11.3km/h 12.0mph /  19.3km/h 94% 0.00in /  0mm
22:49 37.3 °F /  2.9 °C 35.7 °F /  2.1 °C 29.73in /  1006.7hPa ENE 11.0mph /  17.7km/h 12.0mph /  19.3km/h 94% 0.00in /  0mm
22:54 37.2 °F /  2.9 °C 35.6 °F /  2 °C 29.73in /  1006.7hPa NE 7.0mph /  11.3km/h 15.0mph /  24.1km/h 94% 0.00in /  0mm
22:59 37.2 °F /  2.9 °C 35.6 °F /  2 °C 29.73in /  1006.7hPa ENE 7.0mph /  11.3km/h 15.0mph /  24.1km/h 94% 0.01in /  0.25mm
23:04 37.2 °F /  2.9 °C 35.6 °F /  2 °C 29.73in /  1006.7hPa NE 8.0mph /  12.9km/h 14.0mph /  22.5km/h 94% 0.01in /  0.25mm
23:09 37.1 °F /  2.8 °C 35.5 °F /  1.9 °C 29.73in /  1006.7hPa NNE 6.0mph /  9.7km/h 14.0mph /  22.5km/h 94% 0.01in /  0.25mm
23:14 37.2 °F /  2.9 °C 35.6 °F /  2 °C 29.73in /  1006.7hPa ENE 3.0mph /  4.8km/h 12.0mph /  19.3km/h 94% 0.01in /  0.25mm
23:19 37.1 °F /  2.8 °C 35.5 °F /  1.9 °C 29.73in /  1006.7hPa ENE 7.0mph /  11.3km/h 14.0mph /  22.5km/h 94% 0.01in /  0.25mm
23:24 37.1 °F /  2.8 °C 35.5 °F /  1.9 °C 29.73in /  1006.7hPa ENE 7.0mph /  11.3km/h 11.0mph /  17.7km/h 94% 0.01in /  0.25mm
23:29 37.1 °F /  2.8 °C 35.5 °F /  1.9 °C 29.73in /  1006.7hPa ENE 6.0mph /  9.7km/h 11.0mph /  17.7km/h 94% 0.01in /  0.25mm
23:34 37.1 °F /  2.8 °C 35.5 °F /  1.9 °C 29.73in /  1006.7hPa NE 3.0mph /  4.8km/h 12.0mph /  19.3km/h 94% 0.01in /  0.25mm
23:39 37.1 °F /  2.8 °C 35.5 °F /  1.9 °C 29.73in /  1006.7hPa NE 6.0mph /  9.7km/h 12.0mph /  19.3km/h 94% 0.01in /  0.25mm
23:44 37.1 °F /  2.8 °C 35.8 °F /  2.1 °C 29.74in /  1007hPa ENE 8.0mph /  12.9km/h 10.0mph /  16.1km/h 95% 0.01in /  0.25mm
23:49 37.1 °F /  2.8 °C 35.8 °F /  2.1 °C 29.73in /  1006.7hPa NE 4.0mph /  6.4km/h 11.0mph /  17.7km/h 95% 0.01in /  0.25mm
23:54 37.1 °F /  2.8 °C 35.8 °F /  2.1 °C 29.73in /  1006.7hPa NE 11.0mph /  17.7km/h 13.0mph /  20.9km/h 95% 0.01in /  0.25mm
23:59 37.1 °F /  2.8 °C 35.8 °F /  2.1 °C 29.73in /  1006.7hPa ENE 5.0mph /  8km/h 13.0mph /  20.9km/h 95% 0.00in /  0mm
Buffalo, New York, USA
Compliments of Weather Underground - 2.5 mb